www.cux-wetter.de
Wetterdaten: Donnerstag, 15.11.2012
Datum Zeit Temp. A. Feuchte A. Luftdruck Regen Wind Richtung Richtung Sonnenschein Solar Taupunkt Windchill Windben
15.11.2012 00:09 8,1 C 89 % 1025,5 hPa 0,0 l/m 3,7 km/h (1 Bft) S-SW 195 0 min 0 W/m 6,4 C 8,1 C 3,7 km/h (1 Bft)
15.11.2012 00:24 7,9 C 88 % 1025,5 hPa 0,0 l/m 3,5 km/h (1 Bft) S 185 0 min 0 W/m 6,0 C 7,9 C 3,5 km/h (1 Bft)
15.11.2012 00:39 7,6 C 88 % 1025,5 hPa 0,0 l/m 0,4 km/h (0 Bft) S 185 0 min 0 W/m 5,7 C 7,6 C 0,4 km/h (0 Bft)
15.11.2012 00:54 7,4 C 88 % 1025,5 hPa 0,0 l/m 2,4 km/h (1 Bft) S 185 0 min 0 W/m 5,5 C 7,4 C 2,4 km/h (1 Bft)
15.11.2012 01:09 7,3 C 88 % 1025,5 hPa 0,0 l/m 0,3 km/h (0 Bft) S 185 0 min 0 W/m 5,4 C 7,3 C 0,3 km/h (0 Bft)
15.11.2012 01:24 7,3 C 88 % 1025,5 hPa 0,0 l/m 3,3 km/h (1 Bft) S 185 0 min 0 W/m 5,4 C 7,3 C 3,3 km/h (1 Bft)
15.11.2012 01:39 7,3 C 88 % 1025,5 hPa 0,0 l/m 0,3 km/h (0 Bft) S 185 0 min 0 W/m 5,4 C 7,3 C 0,3 km/h (0 Bft)
15.11.2012 01:54 7,2 C 88 % 1024,5 hPa 0,0 l/m 0,0 km/h (0 Bft) S 185 0 min 0 W/m 5,3 C 7,2 C 0,0 km/h (0 Bft)
15.11.2012 02:09 7,2 C 87 % 1024,5 hPa 0,0 l/m 0,1 km/h (0 Bft) S 185 0 min 0 W/m 5,2 C 7,2 C 0,1 km/h (0 Bft)
15.11.2012 02:24 7,0 C 87 % 1024,5 hPa 0,0 l/m 0,0 km/h (0 Bft) S 185 0 min 0 W/m 5,0 C 7,0 C 0,0 km/h (0 Bft)
15.11.2012 02:39 7,1 C 87 % 1024,5 hPa 0,0 l/m 0,3 km/h (0 Bft) S 185 0 min 0 W/m 5,1 C 7,1 C 0,3 km/h (0 Bft)
15.11.2012 02:54 7,0 C 87 % 1024,5 hPa 0,0 l/m 3,4 km/h (1 Bft) S 185 0 min 0 W/m 5,0 C 7,0 C 3,4 km/h (1 Bft)
15.11.2012 03:09 6,9 C 87 % 1024,5 hPa 0,0 l/m 3,4 km/h (1 Bft) S 185 0 min 0 W/m 4,9 C 6,9 C 3,4 km/h (1 Bft)
15.11.2012 03:24 6,8 C 87 % 1024,5 hPa 0,0 l/m 4,7 km/h (1 Bft) S 185 0 min 0 W/m 4,8 C 6,8 C 4,7 km/h (1 Bft)
15.11.2012 03:39 6,7 C 87 % 1024,5 hPa 0,0 l/m 4,3 km/h (1 Bft) S 185 0 min 0 W/m 4,7 C 6,7 C 4,3 km/h (1 Bft)
15.11.2012 03:54 6,7 C 87 % 1024,5 hPa 0,0 l/m 4,9 km/h (1 Bft) S 185 0 min 0 W/m 4,7 C 6,7 C 4,9 km/h (1 Bft)
15.11.2012 04:09 6,7 C 87 % 1024,5 hPa 0,0 l/m 5,0 km/h (1 Bft) S 185 0 min 0 W/m 4,7 C 6,7 C 5,0 km/h (1 Bft)
15.11.2012 04:24 6,7 C 87 % 1024,5 hPa 0,0 l/m 6,8 km/h (2 Bft) S 185 0 min 0 W/m 4,7 C 6,4 C 6,8 km/h (2 Bft)
15.11.2012 04:39 6,7 C 87 % 1024,5 hPa 0,0 l/m 5,6 km/h (2 Bft) S 185 0 min 0 W/m 4,7 C 6,7 C 5,6 km/h (2 Bft)
15.11.2012 04:54 6,7 C 87 % 1024,5 hPa 0,0 l/m 5,4 km/h (2 Bft) S 185 0 min 0 W/m 4,7 C 6,7 C 5,4 km/h (2 Bft)
15.11.2012 05:09 6,7 C 87 % 1024,5 hPa 0,0 l/m 5,7 km/h (2 Bft) S 185 0 min 0 W/m 4,7 C 6,7 C 5,7 km/h (2 Bft)
15.11.2012 05:24 6,8 C 87 % 1024,5 hPa 0,0 l/m 0,9 km/h (0 Bft) S 185 0 min 0 W/m 4,8 C 6,8 C 0,9 km/h (0 Bft)
15.11.2012 05:39 6,8 C 87 % 1024,5 hPa 0,0 l/m 4,8 km/h (1 Bft) S 185 0 min 0 W/m 4,8 C 6,8 C 4,8 km/h (1 Bft)
15.11.2012 05:59 6,8 C 86 % 1023,5 hPa 0,0 l/m 5,9 km/h (2 Bft) S 185 0 min 0 W/m 4,6 C 6,8 C 5,9 km/h (2 Bft)
15.11.2012 06:14 6,7 C 87 % 1024,5 hPa 0,0 l/m 8,4 km/h (2 Bft) O-SO 120 0 min 0 W/m 4,7 C 5,1 C 8,4 km/h (2 Bft)
15.11.2012 06:30 6,8 C 87 % 1023,5 hPa 0,0 l/m 7,0 km/h (2 Bft) S-SW 205 0 min 0 W/m 4,8 C 6,3 C 7,0 km/h (2 Bft)
15.11.2012 06:45 6,8 C 87 % 1023,5 hPa 0,0 l/m 6,6 km/h (2 Bft) S-SW 205 0 min 0 W/m 4,8 C 6,7 C 6,6 km/h (2 Bft)
15.11.2012 07:00 6,9 C 87 % 1023,5 hPa 0,0 l/m 6,3 km/h (2 Bft) S-SW 205 0 min 0 W/m 4,9 C 6,9 C 6,3 km/h (2 Bft)
15.11.2012 07:15 7,0 C 87 % 1023,5 hPa 0,0 l/m 5,3 km/h (1 Bft) S-SW 205 0 min 0 W/m 5,0 C 7,0 C 5,3 km/h (1 Bft)
15.11.2012 07:30 7,0 C 86 % 1023,5 hPa 0,0 l/m 4,7 km/h (1 Bft) S-SW 205 0 min 0 W/m 4,8 C 7,0 C 4,7 km/h (1 Bft)
15.11.2012 07:45 7,0 C 86 % 1023,5 hPa 0,0 l/m 2,4 km/h (1 Bft) S-SW 205 0 min 0 W/m 4,8 C 7,0 C 2,4 km/h (1 Bft)
15.11.2012 08:00 7,3 C 86 % 1023,5 hPa 0,0 l/m 0,6 km/h (0 Bft) S-SW 205 0 min 0 W/m 5,1 C 7,3 C 0,6 km/h (0 Bft)
15.11.2012 08:15 7,0 C 86 % 1023,5 hPa 0,0 l/m 4,2 km/h (1 Bft) S-SW 205 0 min 0 W/m 4,8 C 7,0 C 4,2 km/h (1 Bft)
15.11.2012 08:30 7,0 C 87 % 1023,5 hPa 0,0 l/m 0,0 km/h (0 Bft) S 185 0 min 0 W/m 5,0 C 7,0 C 0,0 km/h (0 Bft)
15.11.2012 08:45 6,9 C 87 % 1023,5 hPa 0,0 l/m 0,0 km/h (0 Bft) S 185 0 min 0 W/m 4,9 C 6,9 C 0,0 km/h (0 Bft)
15.11.2012 09:00 7,0 C 87 % 1023,5 hPa 0,0 l/m 0,0 km/h (0 Bft) S 185 0 min 0 W/m 5,0 C 7,0 C 0,0 km/h (0 Bft)
15.11.2012 09:15 7,1 C 87 % 1023,5 hPa 0,0 l/m 0,1 km/h (0 Bft) S 185 0 min 0 W/m 5,1 C 7,1 C 0,1 km/h (0 Bft)
15.11.2012 09:30 7,2 C 87 % 1024,5 hPa 0,0 l/m 4,8 km/h (1 Bft) S 185 0 min 0 W/m 5,2 C 7,2 C 4,8 km/h (1 Bft)
15.11.2012 09:45 7,4 C 87 % 1024,5 hPa 0,0 l/m 2,3 km/h (1 Bft) S 185 0 min 0 W/m 5,4 C 7,4 C 2,3 km/h (1 Bft)
15.11.2012 10:00 7,9 C 87 % 1024,5 hPa 0,0 l/m 8,2 km/h (2 Bft) NW 315 0 min 0 W/m 5,9 C 6,5 C 8,2 km/h (2 Bft)
15.11.2012 10:15 7,5 C 86 % 1024,5 hPa 0,0 l/m 10,8 km/h (2 Bft) NW 310 0 min 0 W/m 5,3 C 4,3 C 10,8 km/h (2 Bft)
15.11.2012 10:30 7,7 C 85 % 1023,5 hPa 0,0 l/m 13,2 km/h (3 Bft) W 265 0 min 0 W/m 5,3 C 3,2 C 13,2 km/h (3 Bft)
15.11.2012 10:45 7,6 C 85 % 1024,5 hPa 0,0 l/m 8,0 km/h (2 Bft) W-SW 245 0 min 0 W/m 5,2 C 6,3 C 8,0 km/h (2 Bft)
15.11.2012 11:00 7,6 C 85 % 1024,5 hPa 0,0 l/m 5,1 km/h (1 Bft) W 265 0 min 0 W/m 5,2 C 7,6 C 5,1 km/h (1 Bft)
15.11.2012 11:15 7,8 C 85 % 1024,5 hPa 0,0 l/m 6,9 km/h (2 Bft) W 260 0 min 0 W/m 5,4 C 7,4 C 6,9 km/h (2 Bft)
15.11.2012 11:30 7,9 C 85 % 1024,5 hPa 0,0 l/m 6,4 km/h (2 Bft) W 265 0 min 0 W/m 5,5 C 7,9 C 6,4 km/h (2 Bft)
15.11.2012 11:45 8,0 C 85 % 1024,5 hPa 0,0 l/m 5,2 km/h (1 Bft) W-SW 240 0 min 0 W/m 5,6 C 8,0 C 5,2 km/h (1 Bft)
15.11.2012 12:00 8,0 C 85 % 1023,5 hPa 0,0 l/m 5,1 km/h (1 Bft) W-SW 240 0 min 0 W/m 5,6 C 8,0 C 5,1 km/h (1 Bft)
15.11.2012 12:14 8,2 C 84 % 1023,5 hPa 0,0 l/m 6,7 km/h (2 Bft) SW 225 0 min 0 W/m 5,7 C 8,0 C 6,7 km/h (2 Bft)
15.11.2012 12:30 8,3 C 85 % 1023,5 hPa 0,0 l/m 6,1 km/h (2 Bft) SW 225 0 min 0 W/m 5,9 C 8,3 C 6,1 km/h (2 Bft)
15.11.2012 12:45 8,5 C 84 % 1023,5 hPa 0,0 l/m 5,9 km/h (2 Bft) SW 215 0 min 0 W/m 6,0 C 8,5 C 5,9 km/h (2 Bft)
15.11.2012 13:00 8,7 C 83 % 1023,5 hPa 0,0 l/m 9,7 km/h (2 Bft) W 260 0 min 0 W/m 6,0 C 6,3 C 9,7 km/h (2 Bft)
15.11.2012 13:15 8,6 C 82 % 1023,5 hPa 0,0 l/m 8,7 km/h (2 Bft) W-SW 250 0 min 0 W/m 5,7 C 6,9 C 8,7 km/h (2 Bft)
15.11.2012 13:30 8,7 C 82 % 1023,5 hPa 0,0 l/m 8,3 km/h (2 Bft) W-SW 245 0 min 0 W/m 5,8 C 7,3 C 8,3 km/h (2 Bft)
15.11.2012 13:45 8,7 C 82 % 1022,5 hPa 0,0 l/m 5,9 km/h (2 Bft) W-SW 245 0 min 0 W/m 5,8 C 8,7 C 5,9 km/h (2 Bft)
15.11.2012 14:00 8,8 C 82 % 1022,5 hPa 0,0 l/m 5,8 km/h (2 Bft) W-SW 245 0 min 0 W/m 5,9 C 8,8 C 5,8 km/h (2 Bft)
15.11.2012 14:15 8,8 C 82 % 1022,5 hPa 0,0 l/m 4,6 km/h (1 Bft) W-SW 245 0 min 0 W/m 5,9 C 8,8 C 4,6 km/h (1 Bft)
15.11.2012 14:30 8,9 C 81 % 1022,5 hPa 0,0 l/m 3,9 km/h (1 Bft) W-SW 245 0 min 0 W/m 5,8 C 8,9 C 3,9 km/h (1 Bft)
15.11.2012 14:45 8,9 C 81 % 1022,5 hPa 0,0 l/m 3,2 km/h (1 Bft) W-SW 245 0 min 0 W/m 5,8 C 8,9 C 3,2 km/h (1 Bft)
15.11.2012 15:00 8,9 C 81 % 1022,5 hPa 0,0 l/m 2,7 km/h (1 Bft) W-SW 245 0 min 0 W/m 5,8 C 8,9 C 2,7 km/h (1 Bft)
15.11.2012 15:15 8,9 C 81 % 1022,5 hPa 0,0 l/m 3,1 km/h (1 Bft) W-SW 245 0 min 0 W/m 5,8 C 8,9 C 3,1 km/h (1 Bft)
15.11.2012 15:30 8,8 C 81 % 1022,5 hPa 0,0 l/m 0,9 km/h (0 Bft) W-SW 245 0 min 0 W/m 5,7 C 8,8 C 0,9 km/h (0 Bft)
15.11.2012 15:45 8,8 C 82 % 1022,5 hPa 0,0 l/m 3,3 km/h (1 Bft) W-SW 245 0 min 0 W/m 5,9 C 8,8 C 3,3 km/h (1 Bft)
15.11.2012 16:00 8,7 C 82 % 1022,5 hPa 0,0 l/m 0,0 km/h (0 Bft) W-SW 245 0 min 0 W/m 5,8 C 8,7 C 0,0 km/h (0 Bft)
15.11.2012 16:15 8,5 C 82 % 1022,5 hPa 0,0 l/m 9,5 km/h (2 Bft) W 270 0 min 0 W/m 5,6 C 6,3 C 9,5 km/h (2 Bft)
15.11.2012 16:30 8,5 C 83 % 1022,5 hPa 0,0 l/m 3,9 km/h (1 Bft) W-SW 250 0 min 0 W/m 5,8 C 8,5 C 3,9 km/h (1 Bft)
15.11.2012 16:45 8,4 C 83 % 1022,5 hPa 0,0 l/m 0,3 km/h (0 Bft) W-SW 245 0 min 0 W/m 5,7 C 8,4 C 0,3 km/h (0 Bft)
15.11.2012 17:00 8,4 C 84 % 1022,5 hPa 0,0 l/m 0,3 km/h (0 Bft) W-SW 240 0 min 0 W/m 5,9 C 8,4 C 0,3 km/h (0 Bft)
15.11.2012 17:15 8,3 C 84 % 1022,5 hPa 0,0 l/m 0,0 km/h (0 Bft) W-SW 240 0 min 0 W/m 5,8 C 8,3 C 0,0 km/h (0 Bft)
15.11.2012 17:30 8,3 C 84 % 1022,5 hPa 0,0 l/m 0,0 km/h (0 Bft) W-SW 240 0 min 0 W/m 5,8 C 8,3 C 0,0 km/h (0 Bft)
15.11.2012 17:45 8,3 C 84 % 1022,5 hPa 0,0 l/m 0,0 km/h (0 Bft) W-SW 240 0 min 0 W/m 5,8 C 8,3 C 0,0 km/h (0 Bft)
15.11.2012 18:00 8,3 C 85 % 1022,5 hPa 0,0 l/m 0,0 km/h (0 Bft) W-SW 240 0 min 0 W/m 5,9 C 8,3 C 0,0 km/h (0 Bft)
15.11.2012 18:15 8,2 C 84 % 1022,5 hPa 0,0 l/m 0,0 km/h (0 Bft) W-SW 240 0 min 0 W/m 5,7 C 8,2 C 0,0 km/h (0 Bft)
15.11.2012 18:30 8,2 C 85 % 1022,5 hPa 0,0 l/m 0,0 km/h (0 Bft) W-SW 245 0 min 0 W/m 5,8 C 8,2 C 0,0 km/h (0 Bft)
15.11.2012 18:45 8,2 C 85 % 1022,5 hPa 0,0 l/m 0,0 km/h (0 Bft) W-SW 245 0 min 0 W/m 5,8 C 8,2 C 0,0 km/h (0 Bft)
15.11.2012 19:00 8,1 C 85 % 1022,5 hPa 0,0 l/m 0,0 km/h (0 Bft) W-SW 245 0 min 0 W/m 5,7 C 8,1 C 0,0 km/h (0 Bft)
15.11.2012 19:15 8,1 C 85 % 1022,5 hPa 0,0 l/m 0,0 km/h (0 Bft) W-SW 245 0 min 0 W/m 5,7 C 8,1 C 0,0 km/h (0 Bft)
15.11.2012 19:30 8,1 C 85 % 1022,5 hPa 0,0 l/m 0,0 km/h (0 Bft) W-SW 245 0 min 0 W/m 5,7 C 8,1 C 0,0 km/h (0 Bft)
15.11.2012 19:45 8,1 C 85 % 1022,5 hPa 0,0 l/m 0,0 km/h (0 Bft) W-SW 245 0 min 0 W/m 5,7 C 8,1 C 0,0 km/h (0 Bft)
15.11.2012 20:00 8,1 C 86 % 1021,5 hPa 0,0 l/m 0,0 km/h (0 Bft) W-SW 245 0 min 0 W/m 5,9 C 8,1 C 0,0 km/h (0 Bft)
15.11.2012 20:15 8,1 C 86 % 1021,5 hPa 0,0 l/m 0,0 km/h (0 Bft) W-SW 245 0 min 0 W/m 5,9 C 8,1 C 0,0 km/h (0 Bft)
15.11.2012 20:30 8,0 C 86 % 1021,5 hPa 0,0 l/m 0,0 km/h (0 Bft) W-SW 245 0 min 0 W/m 5,8 C 8,0 C 0,0 km/h (0 Bft)
15.11.2012 20:45 8,1 C 86 % 1021,5 hPa 0,0 l/m 0,0 km/h (0 Bft) W-SW 245 0 min 0 W/m 5,9 C 8,1 C 0,0 km/h (0 Bft)
15.11.2012 21:00 8,1 C 86 % 1021,5 hPa 0,0 l/m 0,0 km/h (0 Bft) W-SW 245 0 min 0 W/m 5,9 C 8,1 C 0,0 km/h (0 Bft)
15.11.2012 21:15 8,1 C 86 % 1021,5 hPa 0,0 l/m 3,0 km/h (1 Bft) W-SW 245 0 min 0 W/m 5,9 C 8,1 C 3,0 km/h (1 Bft)
15.11.2012 21:30 8,1 C 87 % 1021,5 hPa 0,0 l/m 4,8 km/h (1 Bft) S-SO 150 0 min 0 W/m 6,1 C 8,1 C 4,8 km/h (1 Bft)
15.11.2012 21:45 8,0 C 87 % 1021,5 hPa 0,0 l/m 0,0 km/h (0 Bft) S 175 0 min 0 W/m 6,0 C 8,0 C 0,0 km/h (0 Bft)
15.11.2012 22:00 7,9 C 87 % 1021,5 hPa 0,0 l/m 5,0 km/h (1 Bft) S-SO 165 0 min 0 W/m 5,9 C 7,9 C 5,0 km/h (1 Bft)
15.11.2012 22:15 7,8 C 86 % 1021,5 hPa 0,0 l/m 4,7 km/h (1 Bft) S 170 0 min 0 W/m 5,6 C 7,8 C 4,7 km/h (1 Bft)
15.11.2012 22:30 7,6 C 86 % 1021,5 hPa 0,0 l/m 5,5 km/h (2 Bft) S-SW 195 0 min 0 W/m 5,4 C 7,6 C 5,5 km/h (2 Bft)
15.11.2012 22:45 7,5 C 86 % 1021,5 hPa 0,0 l/m 1,0 km/h (0 Bft) S-SW 210 0 min 0 W/m 5,3 C 7,5 C 1,0 km/h (0 Bft)
15.11.2012 23:00 7,4 C 86 % 1021,5 hPa 0,0 l/m 3,1 km/h (1 Bft) S-SW 200 0 min 0 W/m 5,2 C 7,4 C 3,1 km/h (1 Bft)
15.11.2012 23:15 7,2 C 86 % 1021,5 hPa 0,0 l/m 7,5 km/h (2 Bft) S 190 0 min 0 W/m 5,0 C 6,3 C 7,5 km/h (2 Bft)
15.11.2012 23:30 6,9 C 85 % 1021,5 hPa 0,0 l/m 6,2 km/h (2 Bft) S 175 0 min 0 W/m 4,6 C 6,9 C 6,2 km/h (2 Bft)
15.11.2012 23:45 6,8 C 85 % 1021,5 hPa 0,0 l/m 5,3 km/h (1 Bft) S 180 0 min 0 W/m 4,5 C 6,8 C 5,3 km/h (1 Bft)
_ Min-Zeit 03:39 14:30 20:00 - 01:54 - - - - 23:45 10:30 01:54
Minimum _ 6,7 C 81 % 1021,5 hPa - 0,0 km/h (0 Bft) - - - - 4,5 C 3,2 C 0,0 km/h (0 Bft)
_ Max-Zeit 14:30 00:09 00:09 00:09 10:30 - - 00:09 00:09 00:09 14:30 10:30
Maximum _ 8,9 C 89 % 1025,5 hPa 0,0 l/m 13,2 km/h
W (3 Bft)
- - 0 min 0 W/m 6,4 C 8,9 C 13,2 km/h
W (3 Bft)
Durchschnitt _ 7,7 C 85 % 1023,3 hPa #0,0 l/m 3,5 km/h (1 Bft) S - #0 min. 0 W/m 5,4 C 7,5 C 3,5 km/h (1 Bft)
copyright by Holger Just